Terminal Aerodrome Forecast
Issued by NWS

Home | Current Version | Previous Version | Text Only | Print | Product List | Glossary On
Versions: 1 2 3 4 5 6 7 8 9 10 11 12
000
FTUS44 KMAF 180520
TAFPEQ
TAF
KPEQ 180520Z 1806/1906 08006KT P6SM SCT150 BKN250
     FM181000 33004KT 4SM BR SCT150
      TEMPO 1811/1815 2SM BR OVC003=

USA.gov is the U.S. government's official web portal to all federal, state and local government web resources and services.